sensor_id;sensor_type;location;lat;lon;timestamp;pressure;altitude;pressure_sealevel;temperature;humidity
40788;BME280;26497;52.494;7.546;2022-11-20T00:02:21;100724.66;;;1.07;53.01
40788;BME280;26497;52.494;7.546;2022-11-20T00:04:48;100711.78;;;1.33;52.50
40788;BME280;26497;52.494;7.546;2022-11-20T00:07:15;100727.78;;;0.98;53.84
40788;BME280;26497;52.494;7.546;2022-11-20T00:09:42;100716.72;;;0.81;53.91
40788;BME280;26497;52.494;7.546;2022-11-20T00:12:09;100717.97;;;0.70;54.19
40788;BME280;26497;52.494;7.546;2022-11-20T00:14:35;100710.06;;;0.67;53.67
40788;BME280;26497;52.494;7.546;2022-11-20T00:17:02;100716.13;;;0.66;53.61
40788;BME280;26497;52.494;7.546;2022-11-20T00:19:31;100716.19;;;0.46;54.20
40788;BME280;26497;52.494;7.546;2022-11-20T00:21:58;100718.66;;;0.43;54.21
40788;BME280;26497;52.494;7.546;2022-11-20T00:24:25;100710.84;;;0.43;53.84
40788;BME280;26497;52.494;7.546;2022-11-20T00:26:52;100712.38;;;0.38;53.67
40788;BME280;26497;52.494;7.546;2022-11-20T00:29:19;100714.75;;;0.33;53.51
40788;BME280;26497;52.494;7.546;2022-11-20T00:31:45;100708.69;;;0.33;53.58
40788;BME280;26497;52.494;7.546;2022-11-20T00:34:13;100702.56;;;0.31;53.23
40788;BME280;26497;52.494;7.546;2022-11-20T00:36:41;100702.13;;;0.41;52.89
40788;BME280;26497;52.494;7.546;2022-11-20T00:39:08;100700.41;;;0.85;52.09
40788;BME280;26497;52.494;7.546;2022-11-20T00:41:35;100704.00;;;1.10;51.39
40788;BME280;26497;52.494;7.546;2022-11-20T00:44:02;100708.34;;;0.88;52.67
40788;BME280;26497;52.494;7.546;2022-11-20T00:46:29;100705.41;;;0.58;53.54
40788;BME280;26497;52.494;7.546;2022-11-20T00:48:57;100708.41;;;0.46;54.34
40788;BME280;26497;52.494;7.546;2022-11-20T00:51:26;100707.75;;;0.52;54.21
40788;BME280;26497;52.494;7.546;2022-11-20T00:53:56;100699.59;;;0.86;52.84
40788;BME280;26497;52.494;7.546;2022-11-20T00:56:26;100701.59;;;0.71;53.50
40788;BME280;26497;52.494;7.546;2022-11-20T00:58:53;100711.13;;;0.49;53.57
40788;BME280;26497;52.494;7.546;2022-11-20T01:01:22;100709.41;;;0.28;54.29
40788;BME280;26497;52.494;7.546;2022-11-20T01:03:52;100711.16;;;0.29;54.10
40788;BME280;26497;52.494;7.546;2022-11-20T01:06:21;100712.94;;;0.31;54.19
40788;BME280;26497;52.494;7.546;2022-11-20T01:08:50;100706.31;;;0.58;53.49
40788;BME280;26497;52.494;7.546;2022-11-20T01:11:21;100702.03;;;0.39;53.76
40788;BME280;26497;52.494;7.546;2022-11-20T01:13:50;100704.94;;;0.26;53.87
40788;BME280;26497;52.494;7.546;2022-11-20T01:16:20;100696.97;;;0.42;53.63
40788;BME280;26497;52.494;7.546;2022-11-20T01:18:49;100701.78;;;0.76;52.30
40788;BME280;26497;52.494;7.546;2022-11-20T01:21:19;100697.94;;;0.88;52.19
40788;BME280;26497;52.494;7.546;2022-11-20T01:23:47;100697.81;;;0.85;52.43
40788;BME280;26497;52.494;7.546;2022-11-20T01:26:18;100686.13;;;0.51;53.53
40788;BME280;26497;52.494;7.546;2022-11-20T01:28:46;100696.69;;;0.35;54.34
40788;BME280;26497;52.494;7.546;2022-11-20T01:31:16;100694.72;;;0.50;54.00
40788;BME280;26497;52.494;7.546;2022-11-20T01:33:47;100694.88;;;0.99;52.02
40788;BME280;26497;52.494;7.546;2022-11-20T01:36:15;100690.50;;;0.75;52.69
40788;BME280;26497;52.494;7.546;2022-11-20T01:38:43;100686.94;;;0.50;53.31
40788;BME280;26497;52.494;7.546;2022-11-20T01:41:12;100680.75;;;0.69;52.78
40788;BME280;26497;52.494;7.546;2022-11-20T01:44:02;100669.81;;;0.77;52.55
40788;BME280;26497;52.494;7.546;2022-11-20T01:46:29;100665.53;;;0.56;53.25
40788;BME280;26497;52.494;7.546;2022-11-20T01:49:00;100654.72;;;0.68;52.67
40788;BME280;26497;52.494;7.546;2022-11-20T01:51:31;100656.38;;;0.43;53.15
40788;BME280;26497;52.494;7.546;2022-11-20T01:54:03;100657.44;;;0.48;52.83
40788;BME280;26497;52.494;7.546;2022-11-20T01:56:33;100665.47;;;0.54;52.62
40788;BME280;26497;52.494;7.546;2022-11-20T01:59:06;100669.53;;;0.26;53.21
40788;BME280;26497;52.494;7.546;2022-11-20T02:01:34;100669.31;;;0.22;53.13
40788;BME280;26497;52.494;7.546;2022-11-20T02:04:02;100665.84;;;0.21;53.06
40788;BME280;26497;52.494;7.546;2022-11-20T02:06:32;100659.31;;;0.10;52.72
40788;BME280;26497;52.494;7.546;2022-11-20T02:09:02;100654.69;;;0.03;53.14
40788;BME280;26497;52.494;7.546;2022-11-20T02:11:30;100657.34;;;0.47;52.08
40788;BME280;26497;52.494;7.546;2022-11-20T02:13:58;100645.94;;;0.20;53.52
40788;BME280;26497;52.494;7.546;2022-11-20T02:16:30;100638.78;;;0.36;53.05
40788;BME280;26497;52.494;7.546;2022-11-20T02:19:01;100638.78;;;0.36;52.96
40788;BME280;26497;52.494;7.546;2022-11-20T02:21:35;100646.44;;;0.33;53.16
40788;BME280;26497;52.494;7.546;2022-11-20T02:24:08;100643.06;;;0.56;52.63
40788;BME280;26497;52.494;7.546;2022-11-20T02:26:46;100641.75;;;0.68;52.61
40788;BME280;26497;52.494;7.546;2022-11-20T02:29:17;100641.53;;;0.84;51.77
40788;BME280;26497;52.494;7.546;2022-11-20T02:31:46;100642.47;;;0.64;52.56
40788;BME280;26497;52.494;7.546;2022-11-20T02:34:13;100646.59;;;0.37;53.71
40788;BME280;26497;52.494;7.546;2022-11-20T02:36:41;100651.97;;;0.21;54.54
40788;BME280;26497;52.494;7.546;2022-11-20T02:39:12;100650.97;;;0.17;55.11
40788;BME280;26497;52.494;7.546;2022-11-20T02:41:42;100643.13;;;0.37;54.75
40788;BME280;26497;52.494;7.546;2022-11-20T02:44:09;100646.47;;;0.55;54.13
40788;BME280;26497;52.494;7.546;2022-11-20T02:46:37;100646.09;;;0.46;54.56
40788;BME280;26497;52.494;7.546;2022-11-20T02:49:05;100646.47;;;0.55;54.07
40788;BME280;26497;52.494;7.546;2022-11-20T02:51:32;100635.97;;;0.52;53.84
40788;BME280;26497;52.494;7.546;2022-11-20T02:53:59;100642.44;;;0.41;54.94
40788;BME280;26497;52.494;7.546;2022-11-20T02:56:28;100638.13;;;0.41;55.79
40788;BME280;26497;52.494;7.546;2022-11-20T02:58:55;100639.56;;;0.56;55.90
40788;BME280;26497;52.494;7.546;2022-11-20T03:01:22;100635.94;;;0.96;53.86
40788;BME280;26497;52.494;7.546;2022-11-20T03:03:49;100627.31;;;0.75;54.85
40788;BME280;26497;52.494;7.546;2022-11-20T03:06:16;100634.03;;;0.69;55.27
40788;BME280;26497;52.494;7.546;2022-11-20T03:08:43;100633.25;;;0.72;55.43
40788;BME280;26497;52.494;7.546;2022-11-20T03:11:10;100627.44;;;0.78;55.98
40788;BME280;26497;52.494;7.546;2022-11-20T03:13:39;100627.31;;;0.97;55.83
40788;BME280;26497;52.494;7.546;2022-11-20T03:16:09;100620.50;;;1.01;55.35
40788;BME280;26497;52.494;7.546;2022-11-20T03:18:36;100617.16;;;0.81;56.23
40788;BME280;26497;52.494;7.546;2022-11-20T03:21:03;100618.16;;;0.84;57.19
40788;BME280;26497;52.494;7.546;2022-11-20T03:23:32;100621.88;;;1.38;55.89
40788;BME280;26497;52.494;7.546;2022-11-20T03:26:11;100630.66;;;1.42;56.08
40788;BME280;26497;52.494;7.546;2022-11-20T03:28:41;100616.47;;;1.32;56.72
40788;BME280;26497;52.494;7.546;2022-11-20T03:31:10;100609.00;;;1.41;56.42
40788;BME280;26497;52.494;7.546;2022-11-20T03:33:38;100610.06;;;1.46;56.59
40788;BME280;26497;52.494;7.546;2022-11-20T03:36:08;100610.00;;;1.95;54.99
40788;BME280;26497;52.494;7.546;2022-11-20T03:38:37;100608.66;;;1.81;54.92
40788;BME280;26497;52.494;7.546;2022-11-20T03:41:07;100606.78;;;1.76;56.20
40788;BME280;26497;52.494;7.546;2022-11-20T03:43:35;100603.00;;;1.68;56.87
40788;BME280;26497;52.494;7.546;2022-11-20T03:46:04;100598.47;;;1.62;57.01
40788;BME280;26497;52.494;7.546;2022-11-20T03:48:32;100601.38;;;1.96;56.25
40788;BME280;26497;52.494;7.546;2022-11-20T03:51:10;100586.31;;;2.13;55.74
40788;BME280;26497;52.494;7.546;2022-11-20T03:53:37;100588.84;;;2.12;55.76
40788;BME280;26497;52.494;7.546;2022-11-20T03:56:06;100591.72;;;2.19;55.44
40788;BME280;26497;52.494;7.546;2022-11-20T03:58:33;100583.44;;;2.05;54.99
40788;BME280;26497;52.494;7.546;2022-11-20T04:01:07;100580.75;;;1.76;56.52
40788;BME280;26497;52.494;7.546;2022-11-20T04:03:35;100573.63;;;1.97;56.43
40788;BME280;26497;52.494;7.546;2022-11-20T04:06:05;100572.25;;;1.81;56.43
40788;BME280;26497;52.494;7.546;2022-11-20T04:08:33;100571.63;;;1.88;56.78
40788;BME280;26497;52.494;7.546;2022-11-20T04:11:11;100573.53;;;1.94;56.21
40788;BME280;26497;52.494;7.546;2022-11-20T04:13:39;100573.91;;;1.79;57.01
40788;BME280;26497;52.494;7.546;2022-11-20T04:16:09;100573.16;;;1.83;57.23
40788;BME280;26497;52.494;7.546;2022-11-20T04:18:36;100571.91;;;1.97;56.64
40788;BME280;26497;52.494;7.546;2022-11-20T04:21:04;100575.69;;;2.34;55.27
40788;BME280;26497;52.494;7.546;2022-11-20T04:23:32;100577.66;;;2.42;55.08
40788;BME280;26497;52.494;7.546;2022-11-20T04:26:04;100561.88;;;2.10;55.10
40788;BME280;26497;52.494;7.546;2022-11-20T04:28:31;100567.38;;;1.91;55.46
40788;BME280;26497;52.494;7.546;2022-11-20T04:31:03;100550.38;;;1.75;55.69
40788;BME280;26497;52.494;7.546;2022-11-20T04:33:32;100549.00;;;1.35;57.34
40788;BME280;26497;52.494;7.546;2022-11-20T04:36:06;100562.06;;;1.12;58.22
40788;BME280;26497;52.494;7.546;2022-11-20T04:38:33;100563.19;;;1.19;59.10
40788;BME280;26497;52.494;7.546;2022-11-20T04:41:05;100556.84;;;1.37;58.38
40788;BME280;26497;52.494;7.546;2022-11-20T04:43:33;100559.41;;;1.35;58.52
40788;BME280;26497;52.494;7.546;2022-11-20T04:46:01;100566.59;;;1.42;58.32
40788;BME280;26497;52.494;7.546;2022-11-20T04:48:29;100569.25;;;1.96;57.61
40788;BME280;26497;52.494;7.546;2022-11-20T04:50:58;100567.09;;;2.10;56.70
40788;BME280;26497;52.494;7.546;2022-11-20T04:53:29;100559.25;;;2.08;56.15
40788;BME280;26497;52.494;7.546;2022-11-20T04:56:00;100563.19;;;1.95;56.98
40788;BME280;26497;52.494;7.546;2022-11-20T04:58:27;100554.84;;;2.33;55.88
40788;BME280;26497;52.494;7.546;2022-11-20T05:01:01;100556.59;;;2.06;56.52
40788;BME280;26497;52.494;7.546;2022-11-20T05:03:29;100559.81;;;1.99;56.90
40788;BME280;26497;52.494;7.546;2022-11-20T05:06:00;100560.13;;;2.09;57.69
40788;BME280;26497;52.494;7.546;2022-11-20T05:08:28;100549.63;;;2.33;57.18
40788;BME280;26497;52.494;7.546;2022-11-20T05:11:00;100547.31;;;2.42;56.78
40788;BME280;26497;52.494;7.546;2022-11-20T05:13:27;100546.50;;;2.74;55.56
40788;BME280;26497;52.494;7.546;2022-11-20T05:15:54;100538.03;;;2.50;55.84
40788;BME280;26497;52.494;7.546;2022-11-20T05:18:22;100543.50;;;2.31;56.91
40788;BME280;26497;52.494;7.546;2022-11-20T05:20:55;100542.56;;;2.29;57.59
40788;BME280;26497;52.494;7.546;2022-11-20T05:23:24;100545.66;;;2.46;57.90
40788;BME280;26497;52.494;7.546;2022-11-20T05:25:53;100549.88;;;2.70;57.29
40788;BME280;26497;52.494;7.546;2022-11-20T05:28:20;100540.47;;;2.75;56.77
40788;BME280;26497;52.494;7.546;2022-11-20T05:30:47;100543.63;;;2.64;57.53
40788;BME280;26497;52.494;7.546;2022-11-20T05:33:15;100541.31;;;2.74;57.43
40788;BME280;26497;52.494;7.546;2022-11-20T05:35:42;100546.03;;;2.87;57.41
40788;BME280;26497;52.494;7.546;2022-11-20T05:38:10;100529.84;;;2.98;56.94
40788;BME280;26497;52.494;7.546;2022-11-20T05:40:38;100517.78;;;2.71;57.56
40788;BME280;26497;52.494;7.546;2022-11-20T05:43:05;100516.31;;;2.80;57.77
40788;BME280;26497;52.494;7.546;2022-11-20T05:45:32;100531.69;;;3.02;57.09
40788;BME280;26497;52.494;7.546;2022-11-20T05:47:59;100527.16;;;2.96;57.04
40788;BME280;26497;52.494;7.546;2022-11-20T05:50:27;100529.22;;;2.76;57.86
40788;BME280;26497;52.494;7.546;2022-11-20T05:52:54;100532.25;;;2.91;57.74
40788;BME280;26497;52.494;7.546;2022-11-20T05:55:21;100527.44;;;3.05;56.95
40788;BME280;26497;52.494;7.546;2022-11-20T05:57:49;100521.75;;;2.88;57.14
40788;BME280;26497;52.494;7.546;2022-11-20T06:00:17;100518.31;;;2.89;57.88
40788;BME280;26497;52.494;7.546;2022-11-20T06:02:44;100515.88;;;2.95;57.44
40788;BME280;26497;52.494;7.546;2022-11-20T06:05:11;100511.34;;;2.88;57.79
40788;BME280;26497;52.494;7.546;2022-11-20T06:07:38;100512.56;;;3.01;57.22
40788;BME280;26497;52.494;7.546;2022-11-20T06:10:05;100515.06;;;2.98;57.19
40788;BME280;26497;52.494;7.546;2022-11-20T06:12:32;100514.03;;;2.91;57.66
40788;BME280;26497;52.494;7.546;2022-11-20T06:15:01;100529.28;;;3.09;57.23
40788;BME280;26497;52.494;7.546;2022-11-20T06:17:28;100534.59;;;3.46;56.19
40788;BME280;26497;52.494;7.546;2022-11-20T06:19:55;100541.72;;;3.52;55.03
40788;BME280;26497;52.494;7.546;2022-11-20T06:22:22;100544.09;;;3.43;55.45
40788;BME280;26497;52.494;7.546;2022-11-20T06:24:49;100539.56;;;3.37;55.88
40788;BME280;26497;52.494;7.546;2022-11-20T06:27:16;100528.22;;;3.35;56.24
40788;BME280;26497;52.494;7.546;2022-11-20T06:29:43;100533.44;;;3.35;56.68
40788;BME280;26497;52.494;7.546;2022-11-20T06:32:11;100524.56;;;3.27;56.66
40788;BME280;26497;52.494;7.546;2022-11-20T06:34:38;100534.34;;;3.35;57.01
40788;BME280;26497;52.494;7.546;2022-11-20T06:37:05;100536.94;;;3.35;56.79
40788;BME280;26497;52.494;7.546;2022-11-20T06:39:32;100538.81;;;3.41;56.82
40788;BME280;26497;52.494;7.546;2022-11-20T06:41:59;100546.34;;;3.29;57.29
40788;BME280;26497;52.494;7.546;2022-11-20T06:44:26;100544.47;;;3.24;57.95
40788;BME280;26497;52.494;7.546;2022-11-20T06:46:53;100537.94;;;3.08;57.64
40788;BME280;26497;52.494;7.546;2022-11-20T06:49:22;100529.03;;;2.70;58.53
40788;BME280;26497;52.494;7.546;2022-11-20T06:51:49;100548.38;;;2.78;59.25
40788;BME280;26497;52.494;7.546;2022-11-20T06:54:16;100539.34;;;2.95;59.17
40788;BME280;26497;52.494;7.546;2022-11-20T06:56:46;100547.25;;;3.00;58.28
40788;BME280;26497;52.494;7.546;2022-11-20T06:59:14;100546.56;;;3.06;58.89
40788;BME280;26497;52.494;7.546;2022-11-20T07:01:41;100548.94;;;3.29;58.64
40788;BME280;26497;52.494;7.546;2022-11-20T07:04:08;100553.44;;;3.68;57.05
40788;BME280;26497;52.494;7.546;2022-11-20T07:06:36;100559.31;;;3.61;57.81
40788;BME280;26497;52.494;7.546;2022-11-20T07:09:03;100558.06;;;3.45;57.97
40788;BME280;26497;52.494;7.546;2022-11-20T07:11:31;100556.41;;;3.16;57.83
40788;BME280;26497;52.494;7.546;2022-11-20T07:13:57;100553.66;;;3.12;58.85
40788;BME280;26497;52.494;7.546;2022-11-20T07:16:24;100547.66;;;3.14;58.74
40788;BME280;26497;52.494;7.546;2022-11-20T07:18:52;100542.09;;;3.34;59.03
40788;BME280;26497;52.494;7.546;2022-11-20T07:21:19;100546.53;;;3.36;58.25
40788;BME280;26497;52.494;7.546;2022-11-20T07:23:48;100548.22;;;3.68;57.77
40788;BME280;26497;52.494;7.546;2022-11-20T07:26:15;100545.84;;;3.77;58.18
40788;BME280;26497;52.494;7.546;2022-11-20T07:28:44;100552.75;;;3.42;57.79
40788;BME280;26497;52.494;7.546;2022-11-20T07:31:11;100552.78;;;3.11;57.94
40788;BME280;26497;52.494;7.546;2022-11-20T07:33:39;100551.91;;;3.43;57.89
40788;BME280;26497;52.494;7.546;2022-11-20T07:36:06;100558.72;;;3.69;57.58
40788;BME280;26497;52.494;7.546;2022-11-20T07:38:33;100557.34;;;3.86;57.88
40788;BME280;26497;52.494;7.546;2022-11-20T07:41:01;100554.66;;;3.81;57.28
40788;BME280;26497;52.494;7.546;2022-11-20T07:43:29;100551.09;;;3.45;57.51
40788;BME280;26497;52.494;7.546;2022-11-20T07:45:56;100552.88;;;3.80;57.71
40788;BME280;26497;52.494;7.546;2022-11-20T07:48:23;100549.25;;;4.10;57.10
40788;BME280;26497;52.494;7.546;2022-11-20T07:50:54;100547.91;;;3.91;56.89
40788;BME280;26497;52.494;7.546;2022-11-20T07:53:21;100537.78;;;3.68;56.99
40788;BME280;26497;52.494;7.546;2022-11-20T07:55:48;100537.00;;;3.72;57.75
40788;BME280;26497;52.494;7.546;2022-11-20T07:58:19;100534.94;;;3.94;57.99
40788;BME280;26497;52.494;7.546;2022-11-20T08:00:46;100543.78;;;3.99;57.90
40788;BME280;26497;52.494;7.546;2022-11-20T08:03:13;100540.28;;;3.98;58.24
40788;BME280;26497;52.494;7.546;2022-11-20T08:05:40;100529.34;;;4.15;57.80
40788;BME280;26497;52.494;7.546;2022-11-20T08:08:07;100532.88;;;4.17;57.29
40788;BME280;26497;52.494;7.546;2022-11-20T08:10:34;100537.47;;;4.26;57.74
40788;BME280;26497;52.494;7.546;2022-11-20T08:13:01;100525.41;;;4.31;57.66
40788;BME280;26497;52.494;7.546;2022-11-20T08:16:02;100528.94;;;4.35;57.89
40788;BME280;26497;52.494;7.546;2022-11-20T08:18:29;100529.84;;;4.35;58.46
40788;BME280;26497;52.494;7.546;2022-11-20T08:20:56;100534.72;;;4.60;57.70
40788;BME280;26497;52.494;7.546;2022-11-20T08:23:23;100535.78;;;4.69;58.00
40788;BME280;26497;52.494;7.546;2022-11-20T08:25:50;100537.56;;;4.70;58.00
40788;BME280;26497;52.494;7.546;2022-11-20T08:28:17;100536.84;;;4.78;58.05
40788;BME280;26497;52.494;7.546;2022-11-20T08:30:44;100539.75;;;4.92;58.33
40788;BME280;26497;52.494;7.546;2022-11-20T08:33:13;100547.19;;;5.14;58.42
40788;BME280;26497;52.494;7.546;2022-11-20T08:35:40;100532.25;;;5.09;58.15
40788;BME280;26497;52.494;7.546;2022-11-20T08:38:09;100534.41;;;4.87;57.54
40788;BME280;26497;52.494;7.546;2022-11-20T08:40:36;100528.84;;;4.70;56.27
40788;BME280;26497;52.494;7.546;2022-11-20T08:43:03;100538.88;;;4.50;56.67
40788;BME280;26497;52.494;7.546;2022-11-20T08:45:30;100532.81;;;4.51;55.86
40788;BME280;26497;52.494;7.546;2022-11-20T08:48:00;100532.25;;;4.26;56.05
40788;BME280;26497;52.494;7.546;2022-11-20T08:50:29;100534.47;;;4.10;56.01
40788;BME280;26497;52.494;7.546;2022-11-20T08:53:02;100536.72;;;4.32;56.71
40788;BME280;26497;52.494;7.546;2022-11-20T08:55:30;100532.69;;;4.46;56.67
40788;BME280;26497;52.494;7.546;2022-11-20T08:57:57;100536.28;;;4.51;57.09
40788;BME280;26497;52.494;7.546;2022-11-20T09:00:24;100537.34;;;4.60;57.09
40788;BME280;26497;52.494;7.546;2022-11-20T09:02:51;100542.19;;;4.84;56.93
40788;BME280;26497;52.494;7.546;2022-11-20T09:05:18;100536.19;;;4.88;56.78
40788;BME280;26497;52.494;7.546;2022-11-20T09:07:47;100539.31;;;4.71;56.03
40788;BME280;26497;52.494;7.546;2022-11-20T09:10:14;100536.22;;;4.48;55.49
40788;BME280;26497;52.494;7.546;2022-11-20T09:12:41;100529.47;;;4.20;56.55
40788;BME280;26497;52.494;7.546;2022-11-20T09:15:09;100525.59;;;4.02;56.77
40788;BME280;26497;52.494;7.546;2022-11-20T09:17:36;100515.59;;;3.84;57.84
40788;BME280;26497;52.494;7.546;2022-11-20T09:20:05;100514.47;;;3.74;57.29
40788;BME280;26497;52.494;7.546;2022-11-20T09:22:32;100505.41;;;3.60;56.88
40788;BME280;26497;52.494;7.546;2022-11-20T09:25:00;100499.81;;;3.79;57.16
40788;BME280;26497;52.494;7.546;2022-11-20T09:27:27;100513.53;;;4.07;57.70
40788;BME280;26497;52.494;7.546;2022-11-20T09:29:54;100523.44;;;4.61;57.69
40788;BME280;26497;52.494;7.546;2022-11-20T09:32:21;100515.34;;;5.37;58.12
40788;BME280;26497;52.494;7.546;2022-11-20T09:34:48;100510.34;;;5.50;57.56
40788;BME280;26497;52.494;7.546;2022-11-20T09:37:15;100507.81;;;5.54;56.39
40788;BME280;26497;52.494;7.546;2022-11-20T09:39:42;100507.78;;;5.51;55.16
40788;BME280;26497;52.494;7.546;2022-11-20T09:42:32;100500.78;;;5.50;54.45
40788;BME280;26497;52.494;7.546;2022-11-20T09:45:21;100505.50;;;5.71;54.32
40788;BME280;26497;52.494;7.546;2022-11-20T09:48:05;100507.59;;;5.93;53.82
40788;BME280;26497;52.494;7.546;2022-11-20T09:50:43;100503.50;;;6.10;53.81
40788;BME280;26497;52.494;7.546;2022-11-20T09:53:22;100496.59;;;6.15;51.99
40788;BME280;26497;52.494;7.546;2022-11-20T09:55:54;100497.88;;;6.41;53.42
40788;BME280;26497;52.494;7.546;2022-11-20T09:58:29;100499.03;;;6.61;52.79
40788;BME280;26497;52.494;7.546;2022-11-20T10:01:06;100500.25;;;6.90;53.24
40788;BME280;26497;52.494;7.546;2022-11-20T10:03:45;100501.59;;;7.35;54.28
40788;BME280;26497;52.494;7.546;2022-11-20T10:06:20;100500.84;;;7.47;54.20
40788;BME280;26497;52.494;7.546;2022-11-20T10:08:58;100485.38;;;7.78;54.43
40788;BME280;26497;52.494;7.546;2022-11-20T10:11:35;100477.50;;;7.80;52.74
40788;BME280;26497;52.494;7.546;2022-11-20T10:14:17;100473.28;;;7.97;53.53
40788;BME280;26497;52.494;7.546;2022-11-20T10:16:59;100482.06;;;8.03;52.85
40788;BME280;26497;52.494;7.546;2022-11-20T10:19:44;100481.03;;;7.82;50.27
40788;BME280;26497;52.494;7.546;2022-11-20T10:22:29;100486.34;;;7.90;49.28
40788;BME280;26497;52.494;7.546;2022-11-20T10:25:05;100490.94;;;8.25;51.46
40788;BME280;26497;52.494;7.546;2022-11-20T10:30:28;100473.75;;;8.80;54.30
40788;BME280;26497;52.494;7.546;2022-11-20T10:33:03;100471.06;;;8.60;49.54
40788;BME280;26497;52.494;7.546;2022-11-20T10:35:35;100463.59;;;7.90;48.25
40788;BME280;26497;52.494;7.546;2022-11-20T10:38:10;100463.34;;;7.62;45.55
40788;BME280;26497;52.494;7.546;2022-11-20T10:40:43;100453.66;;;7.50;46.87
40788;BME280;26497;52.494;7.546;2022-11-20T10:43:14;100449.13;;;7.35;47.75
40788;BME280;26497;52.494;7.546;2022-11-20T10:45:53;100443.13;;;6.64;47.04
40788;BME280;26497;52.494;7.546;2022-11-20T10:48:25;100459.56;;;6.51;48.31
40788;BME280;26497;52.494;7.546;2022-11-20T10:51:08;100460.16;;;6.31;48.48
40788;BME280;26497;52.494;7.546;2022-11-20T10:54:03;100444.50;;;6.34;49.24
40788;BME280;26497;52.494;7.546;2022-11-20T10:56:39;100438.41;;;6.35;48.91
40788;BME280;26497;52.494;7.546;2022-11-20T10:59:49;100441.88;;;6.34;50.23
40788;BME280;26497;52.494;7.546;2022-11-20T11:02:22;100434.84;;;6.30;52.57
40788;BME280;26497;52.494;7.546;2022-11-20T11:04:52;100435.72;;;7.04;65.47
40788;BME280;26497;52.494;7.546;2022-11-20T11:07:23;100432.13;;;7.96;67.31
40788;BME280;26497;52.494;7.546;2022-11-20T11:09:54;100433.53;;;9.37;69.51
40788;BME280;26497;52.494;7.546;2022-11-20T11:12:24;100436.09;;;10.25;65.86
40788;BME280;26497;52.494;7.546;2022-11-20T11:14:54;100427.25;;;10.54;63.48
40788;BME280;26497;52.494;7.546;2022-11-20T11:17:28;100421.16;;;10.26;61.61
40788;BME280;26497;52.494;7.546;2022-11-20T11:20:06;100413.09;;;10.71;60.76
40788;BME280;26497;52.494;7.546;2022-11-20T11:22:45;100407.22;;;11.58;51.50
40788;BME280;26497;52.494;7.546;2022-11-20T11:25:28;100420.69;;;12.25;47.08
40788;BME280;26497;52.494;7.546;2022-11-20T11:27:58;100417.50;;;12.68;42.24
40788;BME280;26497;52.494;7.546;2022-11-20T11:30:28;100406.00;;;12.73;40.40
40788;BME280;26497;52.494;7.546;2022-11-20T11:33:11;100396.88;;;12.28;40.81
40788;BME280;26497;52.494;7.546;2022-11-20T11:35:46;100396.66;;;11.58;41.84
40788;BME280;26497;52.494;7.546;2022-11-20T11:38:28;100395.75;;;11.62;41.68
40788;BME280;26497;52.494;7.546;2022-11-20T11:40:56;100403.41;;;11.90;38.87
40788;BME280;26497;52.494;7.546;2022-11-20T11:43:26;100392.31;;;11.50;38.64
40788;BME280;26497;52.494;7.546;2022-11-20T11:46:29;100396.19;;;11.09;38.85
40788;BME280;26497;52.494;7.546;2022-11-20T11:49:00;100398.91;;;10.94;39.55
40788;BME280;26497;52.494;7.546;2022-11-20T11:51:34;100394.56;;;10.83;39.78
40788;BME280;26497;52.494;7.546;2022-11-20T11:54:15;100385.88;;;10.66;39.77
40788;BME280;26497;52.494;7.546;2022-11-20T11:56:44;100386.03;;;10.27;40.32
40788;BME280;26497;52.494;7.546;2022-11-20T11:59:17;100386.97;;;10.04;40.61
40788;BME280;26497;52.494;7.546;2022-11-20T12:01:53;100380.84;;;9.80;40.77
40788;BME280;26497;52.494;7.546;2022-11-20T12:04:38;100380.03;;;9.46;41.58
40788;BME280;26497;52.494;7.546;2022-11-20T12:07:13;100380.00;;;9.18;41.97
40788;BME280;26497;52.494;7.546;2022-11-20T12:09:48;100372.91;;;8.70;43.15
40788;BME280;26497;52.494;7.546;2022-11-20T12:12:20;100368.34;;;8.19;44.31
40788;BME280;26497;52.494;7.546;2022-11-20T12:14:50;100362.03;;;7.89;45.21
40788;BME280;26497;52.494;7.546;2022-11-20T12:17:20;100357.56;;;7.73;45.94
40788;BME280;26497;52.494;7.546;2022-11-20T12:19:48;100354.09;;;7.77;46.68
40788;BME280;26497;52.494;7.546;2022-11-20T12:22:26;100350.69;;;7.89;46.27
40788;BME280;26497;52.494;7.546;2022-11-20T12:25:01;100347.31;;;8.24;46.03
40788;BME280;26497;52.494;7.546;2022-11-20T12:27:55;100336.06;;;8.50;45.39
40788;BME280;26497;52.494;7.546;2022-11-20T12:30:25;100342.25;;;8.57;44.68
40788;BME280;26497;52.494;7.546;2022-11-20T12:33:12;100347.50;;;8.57;44.87
40788;BME280;26497;52.494;7.546;2022-11-20T12:36:01;100348.34;;;8.52;45.08
40788;BME280;26497;52.494;7.546;2022-11-20T12:38:56;100346.66;;;8.87;44.90
40788;BME280;26497;52.494;7.546;2022-11-20T12:41:51;100343.16;;;9.47;44.70
40788;BME280;26497;52.494;7.546;2022-11-20T12:45:03;100334.28;;;9.95;43.08
40788;BME280;26497;52.494;7.546;2022-11-20T12:50:52;100322.72;;;10.42;40.99
40788;BME280;26497;52.494;7.546;2022-11-20T12:53:37;100311.34;;;10.23;42.05
40788;BME280;26497;52.494;7.546;2022-11-20T12:56:26;100315.91;;;9.73;41.55
40788;BME280;26497;52.494;7.546;2022-11-20T12:59:06;100320.34;;;9.66;42.58
40788;BME280;26497;52.494;7.546;2022-11-20T13:01:44;100315.81;;;10.06;42.69
40788;BME280;26497;52.494;7.546;2022-11-20T13:04:28;100313.50;;;11.07;40.95
40788;BME280;26497;52.494;7.546;2022-11-20T13:07:02;100301.84;;;12.14;39.06
40788;BME280;26497;52.494;7.546;2022-11-20T13:09:30;100304.59;;;12.72;38.12
40788;BME280;26497;52.494;7.546;2022-11-20T13:12:06;100303.06;;;13.65;36.32
40788;BME280;26497;52.494;7.546;2022-11-20T13:14:39;100297.69;;;13.70;35.41
40788;BME280;26497;52.494;7.546;2022-11-20T13:17:10;100298.41;;;12.73;35.84
40788;BME280;26497;52.494;7.546;2022-11-20T13:19:38;100293.22;;;11.97;37.06
40788;BME280;26497;52.494;7.546;2022-11-20T13:22:08;100292.16;;;11.32;38.03
40788;BME280;26497;52.494;7.546;2022-11-20T13:24:35;100284.53;;;11.01;38.25
40788;BME280;26497;52.494;7.546;2022-11-20T13:27:17;100281.22;;;10.69;38.79